sensor_id;sensor_type;location;lat;lon;timestamp;P1;durP1;ratioP1;P2;durP2;ratioP2
1775;SDS011;885;42.626;23.200;2022-07-06T00:00:49;14.60;;;11.50;;
1775;SDS011;885;42.626;23.200;2022-07-06T00:03:16;11.50;;;10.47;;
1775;SDS011;885;42.626;23.200;2022-07-06T00:05:44;11.00;;;10.00;;
1775;SDS011;885;42.626;23.200;2022-07-06T00:08:11;11.53;;;10.10;;
1775;SDS011;885;42.626;23.200;2022-07-06T00:10:38;13.83;;;12.27;;
1775;SDS011;885;42.626;23.200;2022-07-06T00:13:04;16.13;;;12.87;;
1775;SDS011;885;42.626;23.200;2022-07-06T00:15:31;11.60;;;10.47;;
1775;SDS011;885;42.626;23.200;2022-07-06T00:17:58;12.90;;;11.60;;
1775;SDS011;885;42.626;23.200;2022-07-06T00:20:25;12.50;;;11.40;;
1775;SDS011;885;42.626;23.200;2022-07-06T00:22:53;10.50;;;9.50;;
1775;SDS011;885;42.626;23.200;2022-07-06T00:25:20;13.30;;;11.70;;
1775;SDS011;885;42.626;23.200;2022-07-06T00:27:47;14.30;;;11.97;;
1775;SDS011;885;42.626;23.200;2022-07-06T00:30:14;12.70;;;11.00;;
1775;SDS011;885;42.626;23.200;2022-07-06T00:32:40;13.17;;;11.80;;
1775;SDS011;885;42.626;23.200;2022-07-06T00:35:07;13.03;;;11.40;;
1775;SDS011;885;42.626;23.200;2022-07-06T00:37:34;12.10;;;11.00;;
1775;SDS011;885;42.626;23.200;2022-07-06T00:40:03;11.80;;;10.60;;
1775;SDS011;885;42.626;23.200;2022-07-06T00:42:38;10.90;;;9.80;;
1775;SDS011;885;42.626;23.200;2022-07-06T00:45:06;10.63;;;9.53;;
1775;SDS011;885;42.626;23.200;2022-07-06T00:47:33;11.70;;;9.63;;
1775;SDS011;885;42.626;23.200;2022-07-06T00:50:00;11.23;;;9.57;;
1775;SDS011;885;42.626;23.200;2022-07-06T00:52:46;10.70;;;9.70;;
1775;SDS011;885;42.626;23.200;2022-07-06T00:55:16;11.50;;;10.50;;
1775;SDS011;885;42.626;23.200;2022-07-06T00:57:44;10.97;;;9.70;;
1775;SDS011;885;42.626;23.200;2022-07-06T01:00:13;10.23;;;9.33;;
1775;SDS011;885;42.626;23.200;2022-07-06T01:02:41;11.07;;;9.17;;
1775;SDS011;885;42.626;23.200;2022-07-06T01:05:09;11.23;;;9.80;;
1775;SDS011;885;42.626;23.200;2022-07-06T01:07:37;9.20;;;8.17;;
1775;SDS011;885;42.626;23.200;2022-07-06T01:10:05;11.33;;;8.87;;
1775;SDS011;885;42.626;23.200;2022-07-06T01:12:35;10.33;;;9.20;;
1775;SDS011;885;42.626;23.200;2022-07-06T01:15:04;12.10;;;10.93;;
1775;SDS011;885;42.626;23.200;2022-07-06T01:17:32;11.20;;;10.10;;
1775;SDS011;885;42.626;23.200;2022-07-06T01:20:06;12.80;;;11.60;;
1775;SDS011;885;42.626;23.200;2022-07-06T01:22:34;12.00;;;10.83;;
1775;SDS011;885;42.626;23.200;2022-07-06T01:25:01;12.63;;;11.33;;
1775;SDS011;885;42.626;23.200;2022-07-06T01:27:28;13.07;;;11.77;;
1775;SDS011;885;42.626;23.200;2022-07-06T01:29:55;13.27;;;12.07;;
1775;SDS011;885;42.626;23.200;2022-07-06T01:32:22;12.23;;;10.93;;
1775;SDS011;885;42.626;23.200;2022-07-06T01:34:49;13.30;;;12.00;;
1775;SDS011;885;42.626;23.200;2022-07-06T01:37:17;13.77;;;12.23;;
1775;SDS011;885;42.626;23.200;2022-07-06T01:39:44;12.80;;;11.50;;
1775;SDS011;885;42.626;23.200;2022-07-06T01:42:11;12.70;;;11.10;;
1775;SDS011;885;42.626;23.200;2022-07-06T01:44:38;19.47;;;12.23;;
1775;SDS011;885;42.626;23.200;2022-07-06T01:47:04;12.40;;;10.93;;
1775;SDS011;885;42.626;23.200;2022-07-06T01:49:31;11.50;;;10.40;;
1775;SDS011;885;42.626;23.200;2022-07-06T01:51:58;13.50;;;12.00;;
1775;SDS011;885;42.626;23.200;2022-07-06T01:54:26;15.47;;;12.27;;
1775;SDS011;885;42.626;23.200;2022-07-06T01:56:53;15.00;;;12.90;;
1775;SDS011;885;42.626;23.200;2022-07-06T01:59:20;16.53;;;13.73;;
1775;SDS011;885;42.626;23.200;2022-07-06T02:01:47;13.07;;;11.77;;
1775;SDS011;885;42.626;23.200;2022-07-06T02:04:14;13.03;;;11.80;;
1775;SDS011;885;42.626;23.200;2022-07-06T02:06:40;11.50;;;10.40;;
1775;SDS011;885;42.626;23.200;2022-07-06T02:09:07;11.67;;;10.57;;
1775;SDS011;885;42.626;23.200;2022-07-06T02:11:36;12.93;;;11.63;;
1775;SDS011;885;42.626;23.200;2022-07-06T02:14:02;12.07;;;10.87;;
1775;SDS011;885;42.626;23.200;2022-07-06T02:16:29;12.90;;;11.67;;
1775;SDS011;885;42.626;23.200;2022-07-06T02:18:56;11.77;;;10.67;;
1775;SDS011;885;42.626;23.200;2022-07-06T02:21:23;12.03;;;10.83;;
1775;SDS011;885;42.626;23.200;2022-07-06T02:23:50;14.10;;;12.37;;
1775;SDS011;885;42.626;23.200;2022-07-06T02:26:16;12.77;;;11.10;;
1775;SDS011;885;42.626;23.200;2022-07-06T02:28:45;11.80;;;10.60;;
1775;SDS011;885;42.626;23.200;2022-07-06T02:31:12;12.20;;;11.00;;
1775;SDS011;885;42.626;23.200;2022-07-06T02:33:39;17.97;;;11.87;;
1775;SDS011;885;42.626;23.200;2022-07-06T02:36:06;12.83;;;11.00;;
1775;SDS011;885;42.626;23.200;2022-07-06T02:38:33;16.47;;;13.17;;
1775;SDS011;885;42.626;23.200;2022-07-06T02:41:00;16.40;;;13.80;;
1775;SDS011;885;42.626;23.200;2022-07-06T02:43:27;14.60;;;13.20;;
1775;SDS011;885;42.626;23.200;2022-07-06T02:45:55;14.83;;;12.33;;
1775;SDS011;885;42.626;23.200;2022-07-06T02:48:22;13.37;;;12.07;;
1775;SDS011;885;42.626;23.200;2022-07-06T02:50:49;16.20;;;14.50;;
1775;SDS011;885;42.626;23.200;2022-07-06T02:53:17;15.27;;;13.70;;
1775;SDS011;885;42.626;23.200;2022-07-06T02:55:44;14.47;;;12.97;;
1775;SDS011;885;42.626;23.200;2022-07-06T02:58:10;14.83;;;13.00;;
1775;SDS011;885;42.626;23.200;2022-07-06T03:00:37;13.33;;;11.93;;
1775;SDS011;885;42.626;23.200;2022-07-06T03:03:05;15.87;;;11.77;;
1775;SDS011;885;42.626;23.200;2022-07-06T03:05:32;11.40;;;10.33;;
1775;SDS011;885;42.626;23.200;2022-07-06T03:07:59;12.53;;;11.10;;
1775;SDS011;885;42.626;23.200;2022-07-06T03:10:26;12.73;;;11.43;;
1775;SDS011;885;42.626;23.200;2022-07-06T03:12:52;13.50;;;11.30;;
1775;SDS011;885;42.626;23.200;2022-07-06T03:15:19;12.73;;;11.40;;
1775;SDS011;885;42.626;23.200;2022-07-06T03:17:46;14.03;;;12.17;;
1775;SDS011;885;42.626;23.200;2022-07-06T03:20:14;14.60;;;11.20;;
1775;SDS011;885;42.626;23.200;2022-07-06T03:22:41;14.67;;;11.73;;
1775;SDS011;885;42.626;23.200;2022-07-06T03:25:08;12.80;;;11.50;;
1775;SDS011;885;42.626;23.200;2022-07-06T03:27:35;12.13;;;10.87;;
1775;SDS011;885;42.626;23.200;2022-07-06T03:30:02;11.73;;;10.50;;
1775;SDS011;885;42.626;23.200;2022-07-06T03:32:29;11.33;;;10.23;;
1775;SDS011;885;42.626;23.200;2022-07-06T03:34:57;10.20;;;9.20;;
1775;SDS011;885;42.626;23.200;2022-07-06T03:37:25;10.93;;;9.90;;
1775;SDS011;885;42.626;23.200;2022-07-06T03:39:52;10.90;;;9.80;;
1775;SDS011;885;42.626;23.200;2022-07-06T03:42:18;10.10;;;9.13;;
1775;SDS011;885;42.626;23.200;2022-07-06T03:44:45;10.57;;;9.47;;
1775;SDS011;885;42.626;23.200;2022-07-06T03:47:12;12.43;;;9.40;;
1775;SDS011;885;42.626;23.200;2022-07-06T03:49:39;11.43;;;10.27;;
1775;SDS011;885;42.626;23.200;2022-07-06T03:52:05;10.97;;;9.83;;
1775;SDS011;885;42.626;23.200;2022-07-06T03:54:34;12.30;;;10.53;;
1775;SDS011;885;42.626;23.200;2022-07-06T03:57:00;15.57;;;10.40;;
1775;SDS011;885;42.626;23.200;2022-07-06T03:59:27;12.27;;;10.70;;
1775;SDS011;885;42.626;23.200;2022-07-06T04:01:54;11.90;;;10.80;;
1775;SDS011;885;42.626;23.200;2022-07-06T04:04:21;11.03;;;9.93;;
1775;SDS011;885;42.626;23.200;2022-07-06T04:06:47;11.90;;;10.10;;
1775;SDS011;885;42.626;23.200;2022-07-06T04:09:14;11.50;;;9.67;;
1775;SDS011;885;42.626;23.200;2022-07-06T04:11:42;12.07;;;10.07;;
1775;SDS011;885;42.626;23.200;2022-07-06T04:14:09;15.70;;;10.57;;
1775;SDS011;885;42.626;23.200;2022-07-06T04:16:36;11.97;;;9.23;;
1775;SDS011;885;42.626;23.200;2022-07-06T04:19:03;10.30;;;9.20;;
1775;SDS011;885;42.626;23.200;2022-07-06T04:21:30;14.77;;;11.00;;
1775;SDS011;885;42.626;23.200;2022-07-06T04:23:57;12.30;;;8.90;;
1775;SDS011;885;42.626;23.200;2022-07-06T04:26:23;12.93;;;10.40;;
1775;SDS011;885;42.626;23.200;2022-07-06T04:28:51;10.90;;;9.80;;
1775;SDS011;885;42.626;23.200;2022-07-06T04:31:18;10.60;;;9.60;;
1775;SDS011;885;42.626;23.200;2022-07-06T04:33:45;17.97;;;10.37;;
1775;SDS011;885;42.626;23.200;2022-07-06T04:36:12;13.30;;;10.53;;
1775;SDS011;885;42.626;23.200;2022-07-06T04:38:39;14.23;;;10.80;;
1775;SDS011;885;42.626;23.200;2022-07-06T04:41:06;11.47;;;8.87;;
1775;SDS011;885;42.626;23.200;2022-07-06T04:43:32;14.37;;;10.70;;
1775;SDS011;885;42.626;23.200;2022-07-06T04:46:01;10.23;;;9.13;;
1775;SDS011;885;42.626;23.200;2022-07-06T04:48:27;11.63;;;10.20;;
1775;SDS011;885;42.626;23.200;2022-07-06T04:50:55;14.10;;;9.53;;
1775;SDS011;885;42.626;23.200;2022-07-06T04:53:21;11.13;;;10.03;;
1775;SDS011;885;42.626;23.200;2022-07-06T04:55:48;11.10;;;8.80;;
1775;SDS011;885;42.626;23.200;2022-07-06T04:58:15;13.30;;;10.73;;
1775;SDS011;885;42.626;23.200;2022-07-06T05:00:42;12.23;;;9.40;;
1775;SDS011;885;42.626;23.200;2022-07-06T05:03:10;10.17;;;9.13;;
1775;SDS011;885;42.626;23.200;2022-07-06T05:05:37;11.60;;;9.57;;
1775;SDS011;885;42.626;23.200;2022-07-06T05:08:04;10.87;;;9.77;;
1775;SDS011;885;42.626;23.200;2022-07-06T05:10:30;9.37;;;8.47;;
1775;SDS011;885;42.626;23.200;2022-07-06T05:12:57;13.53;;;10.17;;
1775;SDS011;885;42.626;23.200;2022-07-06T05:15:24;11.23;;;9.80;;
1775;SDS011;885;42.626;23.200;2022-07-06T05:17:51;10.93;;;9.73;;
1775;SDS011;885;42.626;23.200;2022-07-06T05:20:19;11.77;;;10.10;;
1775;SDS011;885;42.626;23.200;2022-07-06T05:22:46;16.47;;;10.30;;
1775;SDS011;885;42.626;23.200;2022-07-06T05:25:13;12.33;;;9.97;;
1775;SDS011;885;42.626;23.200;2022-07-06T05:27:40;15.40;;;11.43;;
1775;SDS011;885;42.626;23.200;2022-07-06T05:30:07;12.90;;;10.87;;
1775;SDS011;885;42.626;23.200;2022-07-06T05:32:34;14.57;;;11.90;;
1775;SDS011;885;42.626;23.200;2022-07-06T05:35:05;12.50;;;10.67;;
1775;SDS011;885;42.626;23.200;2022-07-06T05:37:34;13.77;;;9.70;;
1775;SDS011;885;42.626;23.200;2022-07-06T05:40:01;12.93;;;10.20;;
1775;SDS011;885;42.626;23.200;2022-07-06T05:42:28;12.50;;;10.83;;
1775;SDS011;885;42.626;23.200;2022-07-06T05:44:55;17.70;;;11.80;;
1775;SDS011;885;42.626;23.200;2022-07-06T05:47:22;12.03;;;10.00;;
1775;SDS011;885;42.626;23.200;2022-07-06T05:50:07;11.43;;;10.23;;
1775;SDS011;885;42.626;23.200;2022-07-06T05:52:41;11.27;;;9.90;;
1775;SDS011;885;42.626;23.200;2022-07-06T05:55:10;11.10;;;10.00;;
1775;SDS011;885;42.626;23.200;2022-07-06T05:57:37;11.60;;;10.40;;
1775;SDS011;885;42.626;23.200;2022-07-06T06:00:05;14.17;;;11.30;;
1775;SDS011;885;42.626;23.200;2022-07-06T06:02:37;12.67;;;11.37;;
1775;SDS011;885;42.626;23.200;2022-07-06T06:05:05;11.17;;;9.80;;
1775;SDS011;885;42.626;23.200;2022-07-06T06:07:33;11.73;;;9.87;;
1775;SDS011;885;42.626;23.200;2022-07-06T06:10:03;12.00;;;10.80;;
1775;SDS011;885;42.626;23.200;2022-07-06T06:12:30;11.60;;;10.50;;
1775;SDS011;885;42.626;23.200;2022-07-06T06:14:57;13.40;;;11.00;;
1775;SDS011;885;42.626;23.200;2022-07-06T06:17:24;13.80;;;11.00;;
1775;SDS011;885;42.626;23.200;2022-07-06T06:19:51;11.90;;;10.37;;
1775;SDS011;885;42.626;23.200;2022-07-06T06:22:18;13.70;;;11.47;;
1775;SDS011;885;42.626;23.200;2022-07-06T06:24:45;11.60;;;10.00;;
1775;SDS011;885;42.626;23.200;2022-07-06T06:27:13;10.80;;;9.70;;
1775;SDS011;885;42.626;23.200;2022-07-06T06:29:40;12.90;;;10.43;;
1775;SDS011;885;42.626;23.200;2022-07-06T06:32:09;13.17;;;11.80;;
1775;SDS011;885;42.626;23.200;2022-07-06T06:34:36;15.30;;;10.83;;
1775;SDS011;885;42.626;23.200;2022-07-06T06:37:03;14.23;;;10.83;;
1775;SDS011;885;42.626;23.200;2022-07-06T06:39:30;12.10;;;10.77;;
1775;SDS011;885;42.626;23.200;2022-07-06T06:41:57;15.63;;;10.30;;
1775;SDS011;885;42.626;23.200;2022-07-06T06:44:26;13.83;;;12.33;;
1775;SDS011;885;42.626;23.200;2022-07-06T06:46:53;14.00;;;12.27;;
1775;SDS011;885;42.626;23.200;2022-07-06T06:49:19;13.60;;;10.77;;
1775;SDS011;885;42.626;23.200;2022-07-06T06:51:46;13.73;;;10.50;;
1775;SDS011;885;42.626;23.200;2022-07-06T06:54:13;13.53;;;10.90;;
1775;SDS011;885;42.626;23.200;2022-07-06T06:56:40;13.63;;;11.70;;
1775;SDS011;885;42.626;23.200;2022-07-06T06:59:07;11.87;;;10.63;;
1775;SDS011;885;42.626;23.200;2022-07-06T07:01:35;11.87;;;10.33;;
1775;SDS011;885;42.626;23.200;2022-07-06T07:04:02;13.03;;;11.57;;
1775;SDS011;885;42.626;23.200;2022-07-06T07:06:28;12.73;;;11.40;;
1775;SDS011;885;42.626;23.200;2022-07-06T07:08:55;13.77;;;11.53;;
1775;SDS011;885;42.626;23.200;2022-07-06T07:11:22;13.50;;;11.53;;
1775;SDS011;885;42.626;23.200;2022-07-06T07:13:49;14.27;;;12.87;;
1775;SDS011;885;42.626;23.200;2022-07-06T07:16:16;13.97;;;12.50;;
1775;SDS011;885;42.626;23.200;2022-07-06T07:18:44;14.27;;;12.77;;
1775;SDS011;885;42.626;23.200;2022-07-06T07:21:11;17.67;;;14.63;;
1775;SDS011;885;42.626;23.200;2022-07-06T07:23:37;18.37;;;14.73;;
1775;SDS011;885;42.626;23.200;2022-07-06T07:26:04;16.80;;;15.00;;
1775;SDS011;885;42.626;23.200;2022-07-06T07:28:31;20.60;;;14.23;;
1775;SDS011;885;42.626;23.200;2022-07-06T07:30:58;19.87;;;15.30;;
1775;SDS011;885;42.626;23.200;2022-07-06T07:33:25;16.60;;;14.73;;
1775;SDS011;885;42.626;23.200;2022-07-06T07:35:53;17.50;;;14.47;;
1775;SDS011;885;42.626;23.200;2022-07-06T07:38:20;16.80;;;14.90;;
1775;SDS011;885;42.626;23.200;2022-07-06T07:40:47;15.73;;;14.03;;
1775;SDS011;885;42.626;23.200;2022-07-06T07:43:13;15.53;;;13.93;;
1775;SDS011;885;42.626;23.200;2022-07-06T07:45:40;16.90;;;15.20;;
1775;SDS011;885;42.626;23.200;2022-07-06T07:48:07;17.17;;;15.37;;
1775;SDS011;885;42.626;23.200;2022-07-06T07:50:34;18.27;;;16.37;;
1775;SDS011;885;42.626;23.200;2022-07-06T07:53:02;17.00;;;15.27;;
1775;SDS011;885;42.626;23.200;2022-07-06T07:55:29;20.27;;;16.67;;
1775;SDS011;885;42.626;23.200;2022-07-06T07:57:56;18.23;;;15.70;;
1775;SDS011;885;42.626;23.200;2022-07-06T08:00:23;17.00;;;15.40;;
1775;SDS011;885;42.626;23.200;2022-07-06T08:02:50;18.13;;;16.43;;
1775;SDS011;885;42.626;23.200;2022-07-06T08:05:17;17.13;;;14.97;;
1775;SDS011;885;42.626;23.200;2022-07-06T08:07:44;15.93;;;14.40;;
1775;SDS011;885;42.626;23.200;2022-07-06T08:10:12;15.77;;;14.13;;
1775;SDS011;885;42.626;23.200;2022-07-06T08:12:39;17.63;;;15.77;;
1775;SDS011;885;42.626;23.200;2022-07-06T08:15:06;16.97;;;15.17;;
1775;SDS011;885;42.626;23.200;2022-07-06T08:17:34;17.47;;;15.10;;
1775;SDS011;885;42.626;23.200;2022-07-06T08:20:00;16.90;;;15.13;;
1775;SDS011;885;42.626;23.200;2022-07-06T08:22:27;16.00;;;14.43;;
1775;SDS011;885;42.626;23.200;2022-07-06T08:24:55;15.40;;;13.80;;
1775;SDS011;885;42.626;23.200;2022-07-06T08:27:24;16.30;;;14.60;;
1775;SDS011;885;42.626;23.200;2022-07-06T08:29:51;16.63;;;14.40;;
1775;SDS011;885;42.626;23.200;2022-07-06T08:32:17;17.17;;;15.03;;
1775;SDS011;885;42.626;23.200;2022-07-06T08:34:45;16.70;;;15.00;;
1775;SDS011;885;42.626;23.200;2022-07-06T08:37:12;18.73;;;16.17;;
1775;SDS011;885;42.626;23.200;2022-07-06T08:39:39;17.17;;;15.43;;
1775;SDS011;885;42.626;23.200;2022-07-06T08:42:06;17.60;;;15.77;;
1775;SDS011;885;42.626;23.200;2022-07-06T08:44:35;17.43;;;15.60;;
1775;SDS011;885;42.626;23.200;2022-07-06T08:47:04;16.13;;;14.50;;
1775;SDS011;885;42.626;23.200;2022-07-06T08:49:32;16.30;;;14.67;;
1775;SDS011;885;42.626;23.200;2022-07-06T08:52:00;17.67;;;15.43;;
1775;SDS011;885;42.626;23.200;2022-07-06T08:54:29;19.97;;;16.80;;
1775;SDS011;885;42.626;23.200;2022-07-06T08:56:57;16.87;;;15.10;;
1775;SDS011;885;42.626;23.200;2022-07-06T08:59:25;16.30;;;14.60;;
1775;SDS011;885;42.626;23.200;2022-07-06T09:01:54;18.33;;;16.60;;
1775;SDS011;885;42.626;23.200;2022-07-06T09:04:21;17.13;;;14.23;;
1775;SDS011;885;42.626;23.200;2022-07-06T09:06:49;21.17;;;16.47;;
1775;SDS011;885;42.626;23.200;2022-07-06T09:09:18;15.27;;;13.63;;
1775;SDS011;885;42.626;23.200;2022-07-06T09:11:46;15.13;;;13.73;;
1775;SDS011;885;42.626;23.200;2022-07-06T09:14:13;16.17;;;14.53;;
1775;SDS011;885;42.626;23.200;2022-07-06T09:16:40;14.00;;;12.70;;
1775;SDS011;885;42.626;23.200;2022-07-06T09:19:09;16.40;;;14.60;;
1775;SDS011;885;42.626;23.200;2022-07-06T09:21:37;15.10;;;12.50;;
1775;SDS011;885;42.626;23.200;2022-07-06T09:24:06;16.30;;;14.70;;
1775;SDS011;885;42.626;23.200;2022-07-06T09:26:34;14.63;;;13.13;;
1775;SDS011;885;42.626;23.200;2022-07-06T09:29:01;15.20;;;13.73;;
1775;SDS011;885;42.626;23.200;2022-07-06T09:31:29;15.27;;;13.87;;
1775;SDS011;885;42.626;23.200;2022-07-06T09:33:56;17.83;;;14.63;;
1775;SDS011;885;42.626;23.200;2022-07-06T09:36:39;15.87;;;14.37;;
1775;SDS011;885;42.626;23.200;2022-07-06T09:39:17;15.00;;;12.70;;
1775;SDS011;885;42.626;23.200;2022-07-06T09:41:44;15.70;;;14.10;;
1775;SDS011;885;42.626;23.200;2022-07-06T09:44:11;17.50;;;13.87;;
1775;SDS011;885;42.626;23.200;2022-07-06T09:46:39;14.10;;;12.70;;
1775;SDS011;885;42.626;23.200;2022-07-06T09:49:08;15.20;;;13.70;;
1775;SDS011;885;42.626;23.200;2022-07-06T09:51:35;16.53;;;14.93;;
1775;SDS011;885;42.626;23.200;2022-07-06T09:54:07;16.83;;;15.03;;
1775;SDS011;885;42.626;23.200;2022-07-06T09:56:37;19.03;;;15.83;;
1775;SDS011;885;42.626;23.200;2022-07-06T09:59:05;16.70;;;14.60;;
1775;SDS011;885;42.626;23.200;2022-07-06T10:01:35;19.47;;;17.10;;
1775;SDS011;885;42.626;23.200;2022-07-06T10:04:02;15.37;;;13.80;;
1775;SDS011;885;42.626;23.200;2022-07-06T10:06:29;17.60;;;14.90;;
1775;SDS011;885;42.626;23.200;2022-07-06T10:08:57;15.13;;;13.47;;
1775;SDS011;885;42.626;23.200;2022-07-06T10:11:26;16.67;;;14.97;;
1775;SDS011;885;42.626;23.200;2022-07-06T10:13:55;17.40;;;14.93;;
1775;SDS011;885;42.626;23.200;2022-07-06T10:16:23;16.47;;;14.87;;
1775;SDS011;885;42.626;23.200;2022-07-06T10:18:50;19.40;;;17.40;;
1775;SDS011;885;42.626;23.200;2022-07-06T10:21:18;16.83;;;15.13;;
1775;SDS011;885;42.626;23.200;2022-07-06T10:23:46;17.50;;;15.70;;
1775;SDS011;885;42.626;23.200;2022-07-06T10:26:14;22.00;;;15.80;;
1775;SDS011;885;42.626;23.200;2022-07-06T10:28:43;17.50;;;15.83;;
1775;SDS011;885;42.626;23.200;2022-07-06T10:31:12;16.77;;;15.07;;
1775;SDS011;885;42.626;23.200;2022-07-06T10:33:41;18.10;;;15.47;;
1775;SDS011;885;42.626;23.200;2022-07-06T10:36:08;14.73;;;13.33;;
1775;SDS011;885;42.626;23.200;2022-07-06T10:38:35;15.30;;;13.63;;
1775;SDS011;885;42.626;23.200;2022-07-06T10:41:03;15.40;;;13.87;;
1775;SDS011;885;42.626;23.200;2022-07-06T10:43:32;13.90;;;12.57;;
1775;SDS011;885;42.626;23.200;2022-07-06T10:46:09;14.03;;;12.63;;
1775;SDS011;885;42.626;23.200;2022-07-06T10:48:37;14.53;;;13.13;;
1775;SDS011;885;42.626;23.200;2022-07-06T10:51:05;14.37;;;12.87;;
1775;SDS011;885;42.626;23.200;2022-07-06T10:53:34;14.90;;;13.50;;
1775;SDS011;885;42.626;23.200;2022-07-06T10:56:03;15.20;;;13.73;;
1775;SDS011;885;42.626;23.200;2022-07-06T10:58:35;13.03;;;11.77;;
1775;SDS011;885;42.626;23.200;2022-07-06T11:01:04;18.20;;;14.03;;
1775;SDS011;885;42.626;23.200;2022-07-06T11:03:37;16.30;;;13.80;;
1775;SDS011;885;42.626;23.200;2022-07-06T11:06:06;14.97;;;13.57;;
1775;SDS011;885;42.626;23.200;2022-07-06T11:08:47;14.33;;;12.77;;
1775;SDS011;885;42.626;23.200;2022-07-06T11:11:16;14.30;;;12.90;;
1775;SDS011;885;42.626;23.200;2022-07-06T11:13:52;15.83;;;14.13;;
1775;SDS011;885;42.626;23.200;2022-07-06T11:16:21;14.93;;;13.43;;
1775;SDS011;885;42.626;23.200;2022-07-06T11:18:58;14.77;;;13.27;;
1775;SDS011;885;42.626;23.200;2022-07-06T11:21:33;16.87;;;15.17;;
1775;SDS011;885;42.626;23.200;2022-07-06T11:24:03;17.63;;;15.87;;
1775;SDS011;885;42.626;23.200;2022-07-06T11:26:31;18.03;;;16.13;;
1775;SDS011;885;42.626;23.200;2022-07-06T11:29:02;17.20;;;15.50;;
1775;SDS011;885;42.626;23.200;2022-07-06T11:31:32;18.70;;;16.90;;
1775;SDS011;885;42.626;23.200;2022-07-06T11:34:01;18.90;;;16.70;;
1775;SDS011;885;42.626;23.200;2022-07-06T11:36:28;17.50;;;15.80;;
1775;SDS011;885;42.626;23.200;2022-07-06T11:38:55;20.40;;;17.57;;
1775;SDS011;885;42.626;23.200;2022-07-06T11:41:22;18.20;;;16.30;;
1775;SDS011;885;42.626;23.200;2022-07-06T11:43:49;17.17;;;15.50;;
1775;SDS011;885;42.626;23.200;2022-07-06T11:46:18;17.37;;;15.60;;
1775;SDS011;885;42.626;23.200;2022-07-06T11:48:46;17.40;;;15.80;;
1775;SDS011;885;42.626;23.200;2022-07-06T11:51:15;17.50;;;15.90;;
1775;SDS011;885;42.626;23.200;2022-07-06T11:53:42;19.00;;;17.20;;
1775;SDS011;885;42.626;23.200;2022-07-06T11:56:11;16.30;;;14.60;;
1775;SDS011;885;42.626;23.200;2022-07-06T11:58:38;18.97;;;17.07;;
1775;SDS011;885;42.626;23.200;2022-07-06T12:01:08;17.80;;;16.10;;
1775;SDS011;885;42.626;23.200;2022-07-06T12:03:36;18.37;;;16.57;;
1775;SDS011;885;42.626;23.200;2022-07-06T12:06:03;18.13;;;16.43;;
1775;SDS011;885;42.626;23.200;2022-07-06T12:08:33;16.87;;;15.17;;
1775;SDS011;885;42.626;23.200;2022-07-06T12:11:07;16.73;;;15.13;;
1775;SDS011;885;42.626;23.200;2022-07-06T12:13:35;20.07;;;18.17;;
1775;SDS011;885;42.626;23.200;2022-07-06T12:16:08;18.93;;;17.07;;
1775;SDS011;885;42.626;23.200;2022-07-06T12:18:36;18.03;;;16.33;;
1775;SDS011;885;42.626;23.200;2022-07-06T12:21:04;17.13;;;15.43;;
1775;SDS011;885;42.626;23.200;2022-07-06T12:23:41;18.23;;;16.30;;
1775;SDS011;885;42.626;23.200;2022-07-06T12:26:09;17.07;;;15.47;;
1775;SDS011;885;42.626;23.200;2022-07-06T12:28:37;18.20;;;16.40;;
1775;SDS011;885;42.626;23.200;2022-07-06T12:31:04;18.60;;;16.70;;
1775;SDS011;885;42.626;23.200;2022-07-06T12:33:30;17.93;;;16.23;;
1775;SDS011;885;42.626;23.200;2022-07-06T12:36:08;18.43;;;15.67;;
1775;SDS011;885;42.626;23.200;2022-07-06T12:38:35;14.80;;;13.40;;
1775;SDS011;885;42.626;23.200;2022-07-06T12:41:11;16.63;;;14.87;;
1775;SDS011;885;42.626;23.200;2022-07-06T12:43:48;15.03;;;13.63;;
1775;SDS011;885;42.626;23.200;2022-07-06T12:46:26;14.27;;;12.87;;
1775;SDS011;885;42.626;23.200;2022-07-06T12:48:54;13.77;;;12.57;;
1775;SDS011;885;42.626;23.200;2022-07-06T12:51:22;13.20;;;12.00;;
1775;SDS011;885;42.626;23.200;2022-07-06T12:53:49;13.33;;;12.17;;
1775;SDS011;885;42.626;23.200;2022-07-06T12:56:18;13.50;;;12.20;;
1775;SDS011;885;42.626;23.200;2022-07-06T12:58:56;13.60;;;12.20;;
1775;SDS011;885;42.626;23.200;2022-07-06T13:01:24;12.93;;;11.63;;
1775;SDS011;885;42.626;23.200;2022-07-06T13:03:54;15.10;;;12.03;;
1775;SDS011;885;42.626;23.200;2022-07-06T13:06:29;14.53;;;13.00;;
1775;SDS011;885;42.626;23.200;2022-07-06T13:08:57;11.30;;;10.10;;
1775;SDS011;885;42.626;23.200;2022-07-06T13:11:25;12.10;;;10.90;;
1775;SDS011;885;42.626;23.200;2022-07-06T13:13:52;11.70;;;10.60;;
1775;SDS011;885;42.626;23.200;2022-07-06T13:16:19;10.33;;;9.43;;
1775;SDS011;885;42.626;23.200;2022-07-06T13:18:47;10.60;;;9.70;;
1775;SDS011;885;42.626;23.200;2022-07-06T13:21:13;8.73;;;8.03;;
1775;SDS011;885;42.626;23.200;2022-07-06T13:23:40;9.30;;;8.50;;
1775;SDS011;885;42.626;23.200;2022-07-06T13:26:10;8.90;;;8.10;;
1775;SDS011;885;42.626;23.200;2022-07-06T13:28:38;9.67;;;8.67;;
1775;SDS011;885;42.626;23.200;2022-07-06T13:31:05;9.30;;;8.60;;
1775;SDS011;885;42.626;23.200;2022-07-06T13:33:32;8.80;;;8.00;;
1775;SDS011;885;42.626;23.200;2022-07-06T13:35:58;8.70;;;7.80;;
1775;SDS011;885;42.626;23.200;2022-07-06T13:38:26;7.50;;;6.80;;
1775;SDS011;885;42.626;23.200;2022-07-06T13:40:53;7.90;;;7.20;;
1775;SDS011;885;42.626;23.200;2022-07-06T13:43:20;7.83;;;7.13;;
1775;SDS011;885;42.626;23.200;2022-07-06T13:45:48;8.30;;;7.50;;
1775;SDS011;885;42.626;23.200;2022-07-06T13:48:15;7.03;;;6.40;;
1775;SDS011;885;42.626;23.200;2022-07-06T13:50:42;6.77;;;6.20;;
1775;SDS011;885;42.626;23.200;2022-07-06T13:53:09;6.33;;;5.57;;
1775;SDS011;885;42.626;23.200;2022-07-06T13:55:39;5.50;;;5.10;;
1775;SDS011;885;42.626;23.200;2022-07-06T13:58:05;4.40;;;4.00;;
1775;SDS011;885;42.626;23.200;2022-07-06T14:00:33;4.13;;;3.27;;
1775;SDS011;885;42.626;23.200;2022-07-06T14:03:01;4.07;;;3.63;;
1775;SDS011;885;42.626;23.200;2022-07-06T14:05:28;3.90;;;3.60;;
1775;SDS011;885;42.626;23.200;2022-07-06T14:07:54;4.17;;;3.87;;
1775;SDS011;885;42.626;23.200;2022-07-06T14:10:21;4.07;;;3.77;;
1775;SDS011;885;42.626;23.200;2022-07-06T14:12:48;4.10;;;3.70;;
1775;SDS011;885;42.626;23.200;2022-07-06T14:15:15;3.63;;;3.33;;
1775;SDS011;885;42.626;23.200;2022-07-06T14:17:42;3.60;;;3.30;;
1775;SDS011;885;42.626;23.200;2022-07-06T14:20:11;4.20;;;3.90;;
1775;SDS011;885;42.626;23.200;2022-07-06T14:22:37;4.17;;;3.60;;
1775;SDS011;885;42.626;23.200;2022-07-06T14:25:04;3.50;;;3.20;;
1775;SDS011;885;42.626;23.200;2022-07-06T14:27:32;4.20;;;3.90;;
1775;SDS011;885;42.626;23.200;2022-07-06T14:29:59;3.67;;;3.37;;
1775;SDS011;885;42.626;23.200;2022-07-06T14:32:25;3.90;;;3.60;;
1775;SDS011;885;42.626;23.200;2022-07-06T14:34:52;3.73;;;3.43;;
1775;SDS011;885;42.626;23.200;2022-07-06T14:37:20;4.23;;;3.93;;
1775;SDS011;885;42.626;23.200;2022-07-06T14:39:47;4.30;;;4.00;;
1775;SDS011;885;42.626;23.200;2022-07-06T14:42:14;3.57;;;3.37;;
1775;SDS011;885;42.626;23.200;2022-07-06T14:44:41;3.97;;;3.67;;
1775;SDS011;885;42.626;23.200;2022-07-06T14:47:08;4.07;;;3.77;;
1775;SDS011;885;42.626;23.200;2022-07-06T14:49:34;4.80;;;3.63;;
1775;SDS011;885;42.626;23.200;2022-07-06T14:52:02;3.60;;;3.30;;
1775;SDS011;885;42.626;23.200;2022-07-06T14:54:31;4.57;;;3.90;;
1775;SDS011;885;42.626;23.200;2022-07-06T14:56:58;3.60;;;3.30;;